Time;durP1;ratioP1;P1;durP2;ratioP2;P2;SDS_P1;SDS_P2;PMS_P1;PMS_P2;Temp;Humidity;BMP_temperature;BMP_pressure;BME280_temperature;BME280_humidity;BME280_pressure;Samples;Min_cycle;Max_cycle;Signal;HPM_P1;HPM_P2
2023/12/12 00:00:29;;;;;;;2.88;1.60;;;10.00;97.90;;;;;;6103407;23;20034;-82
2023/12/12 00:03:01;;;;;;;1.75;1.23;;;10.00;97.90;;;;;;6103435;23;20021;-82
2023/12/12 00:05:27;;;;;;;3.15;1.35;;;10.00;97.90;;;;;;6129036;23;20006;-82
2023/12/12 00:07:52;;;;;;;3.25;1.58;;;10.00;97.90;;;;;;6102541;23;20014;-80
2023/12/12 00:10:18;;;;;;;2.92;1.90;;;10.00;97.80;;;;;;6103271;23;20097;-82
2023/12/12 00:12:44;;;;;;;3.95;1.98;;;9.90;97.80;;;;;;6130749;23;20325;-82
2023/12/12 00:15:10;;;;;;;5.40;2.33;;;9.90;97.80;;;;;;6104522;23;20090;-82
2023/12/12 00:17:39;;;;;;;4.78;2.30;;;9.80;97.70;;;;;;6128524;23;20089;-82
2023/12/12 00:20:08;;;;;;;2.40;1.50;;;9.80;98.00;;;;;;6103629;23;20561;-80
2023/12/12 00:22:34;;;;;;;1.52;1.20;;;9.80;97.80;;;;;;6103015;23;20100;-81
2023/12/12 00:25:00;;;;;;;2.85;1.73;;;9.80;97.80;;;;;;6104159;23;20002;-82
2023/12/12 00:27:26;;;;;;;3.28;1.52;;;9.80;97.80;;;;;;6129458;23;20006;-82
2023/12/12 00:29:51;;;;;;;4.13;2.20;;;9.80;97.80;;;;;;6098437;23;20069;-80
2023/12/12 00:32:17;;;;;;;7.72;2.65;;;9.80;97.80;;;;;;6098738;23;20002;-81
2023/12/12 00:34:42;;;;;;;6.45;2.25;;;9.70;97.70;;;;;;6096849;23;20002;-81
2023/12/12 00:37:08;;;;;;;4.40;2.10;;;9.70;97.80;;;;;;6097542;23;20006;-81
2023/12/12 00:39:38;;;;;;;3.85;1.70;;;9.70;97.80;;;;;;6096892;23;20009;-80
2023/12/12 00:42:03;;;;;;;5.63;1.90;;;9.70;97.80;;;;;;6098107;23;20572;-82
2023/12/12 00:44:29;;;;;;;3.92;1.90;;;9.70;97.70;;;;;;6096900;23;19998;-81
2023/12/12 00:46:54;;;;;;;3.38;1.92;;;9.70;97.70;;;;;;6098598;23;20024;-80
2023/12/12 00:49:20;;;;;;;2.85;1.90;;;9.70;98.10;;;;;;6123276;23;20010;-81
2023/12/12 00:51:46;;;;;;;3.30;1.90;;;9.70;97.80;;;;;;6124390;23;20327;-82
2023/12/12 00:54:11;;;;;;;2.90;1.80;;;9.70;97.80;;;;;;6098878;23;20013;-80
2023/12/12 00:56:37;;;;;;;4.20;1.65;;;9.70;97.80;;;;;;6128365;23;20006;-80
2023/12/12 00:59:02;;;;;;;3.88;1.50;;;9.60;97.80;;;;;;6103003;23;20009;-81
2023/12/12 01:01:28;;;;;;;2.53;1.50;;;9.70;97.80;;;;;;6103470;23;20006;-82
2023/12/12 01:03:53;;;;;;;2.47;1.15;;;9.60;97.80;;;;;;6103289;23;20502;-82
2023/12/12 01:06:24;;;;;;;2.42;1.73;;;9.60;97.90;;;;;;6102287;23;20395;-79
2023/12/12 01:08:50;;;;;;;2.35;1.65;;;9.60;97.90;;;;;;6101517;23;20380;-81
2023/12/12 01:11:16;;;;;;;1.58;1.40;;;9.60;98.00;;;;;;6102540;23;20032;-82
2023/12/12 01:13:42;;;;;;;1.48;1.20;;;9.50;98.00;;;;;;6128902;23;20009;-82
2023/12/12 01:16:07;;;;;;;2.65;1.60;;;9.50;98.00;;;;;;6102958;23;20039;-80
2023/12/12 01:18:34;;;;;;;2.40;1.30;;;9.50;98.20;;;;;;6102672;23;20006;-82
2023/12/12 01:21:00;;;;;;;1.95;1.40;;;9.50;98.30;;;;;;6129976;23;20419;-84
2023/12/12 01:23:26;;;;;;;1.92;1.40;;;9.40;98.20;;;;;;6103831;23;20025;-81
2023/12/12 01:25:51;;;;;;;2.47;1.42;;;9.40;98.30;;;;;;6101109;23;20001;-82
2023/12/12 01:28:17;;;;;;;1.73;1.40;;;9.40;98.40;;;;;;6097329;23;20010;-82
2023/12/12 01:30:43;;;;;;;3.78;1.50;;;9.40;98.40;;;;;;6100605;23;20006;-80
2023/12/12 01:33:08;;;;;;;1.90;1.55;;;9.30;98.40;;;;;;6099622;23;20448;-81
2023/12/12 01:35:34;;;;;;;2.33;1.50;;;9.30;98.40;;;;;;6099291;23;20077;-82
2023/12/12 01:37:59;;;;;;;1.88;1.40;;;9.30;98.50;;;;;;6099144;23;20081;-82
2023/12/12 01:40:25;;;;;;;1.70;1.40;;;9.20;98.50;;;;;;6098694;23;20029;-81
2023/12/12 01:42:50;;;;;;;2.20;1.25;;;9.20;98.50;;;;;;6098999;23;19998;-81
2023/12/12 01:45:16;;;;;;;2.10;1.40;;;9.20;98.50;;;;;;6099648;23;20006;-81
2023/12/12 01:47:42;;;;;;;1.60;1.25;;;9.10;98.50;;;;;;6099672;23;20061;-79
2023/12/12 01:50:08;;;;;;;2.47;1.35;;;9.10;98.50;;;;;;6101708;23;19999;-80
2023/12/12 01:52:34;;;;;;;2.05;1.10;;;9.10;98.60;;;;;;6105580;23;20006;-81
2023/12/12 01:55:00;;;;;;;1.83;1.30;;;9.00;98.60;;;;;;6099431;23;20089;-80
2023/12/12 01:57:26;;;;;;;2.05;1.23;;;9.00;98.70;;;;;;6097349;23;19999;-81
2023/12/12 01:59:52;;;;;;;2.40;1.40;;;9.00;98.80;;;;;;6098789;23;20058;-79
2023/12/12 02:02:19;;;;;;;1.88;1.20;;;8.90;98.80;;;;;;6098349;23;20007;-79
2023/12/12 02:04:47;;;;;;;1.52;1.25;;;8.90;98.80;;;;;;6099557;23;19998;-79
2023/12/12 02:07:13;;;;;;;1.38;1.20;;;8.90;98.80;;;;;;6099736;23;20389;-82
2023/12/12 02:09:40;;;;;;;2.17;1.15;;;8.80;98.80;;;;;;6101770;23;20002;-80
2023/12/12 02:12:05;;;;;;;2.10;1.45;;;8.80;98.90;;;;;;6100349;23;20344;-81
2023/12/12 02:14:33;;;;;;;2.38;1.30;;;8.80;98.90;;;;;;6100354;23;20089;-82
2023/12/12 02:16:59;;;;;;;1.92;1.10;;;8.70;98.90;;;;;;6102372;23;20003;-81
2023/12/12 02:19:24;;;;;;;1.98;1.60;;;8.70;99.00;;;;;;6098364;23;20054;-81
2023/12/12 02:21:50;;;;;;;3.28;1.30;;;8.70;99.00;;;;;;6100493;23;20010;-82
2023/12/12 02:24:15;;;;;;;1.95;1.20;;;8.70;99.10;;;;;;6100958;23;20107;-81
2023/12/12 02:26:41;;;;;;;2.17;1.50;;;8.70;99.20;;;;;;6102687;23;20420;-82
2023/12/12 02:29:06;;;;;;;2.72;1.50;;;8.60;99.10;;;;;;6128683;23;20069;-82
2023/12/12 02:31:32;;;;;;;3.30;1.80;;;8.60;99.10;;;;;;6104224;23;20037;-82
2023/12/12 02:33:58;;;;;;;4.45;2.58;;;8.60;99.00;;;;;;6101896;23;20065;-82
2023/12/12 02:36:23;;;;;;;3.90;2.05;;;8.60;99.00;;;;;;6128551;23;20002;-81
2023/12/12 02:38:49;;;;;;;5.07;2.40;;;8.60;98.90;;;;;;6103103;23;20008;-81
2023/12/12 02:41:14;;;;;;;5.05;2.58;;;8.50;98.80;;;;;;6131540;23;20002;-81
2023/12/12 02:43:40;;;;;;;6.00;2.42;;;8.50;98.70;;;;;;6130329;23;19998;-81
2023/12/12 02:46:06;;;;;;;5.78;2.97;;;8.50;98.70;;;;;;6105156;23;20037;-81
2023/12/12 02:48:32;;;;;;;3.08;2.20;;;8.40;98.60;;;;;;6103037;23;20002;-82
2023/12/12 02:50:57;;;;;;;3.28;2.08;;;8.40;98.70;;;;;;6103390;23;20057;-82
2023/12/12 02:53:23;;;;;;;4.10;2.45;;;8.40;98.60;;;;;;6131382;23;20295;-82
2023/12/12 02:55:48;;;;;;;7.47;2.95;;;8.30;98.50;;;;;;6108523;23;20008;-79
2023/12/12 02:58:14;;;;;;;5.47;3.58;;;8.30;98.50;;;;;;6109100;23;20013;-81
2023/12/12 03:00:39;;;;;;;7.97;3.92;;;8.20;98.50;;;;;;6110529;23;20030;-82
2023/12/12 03:03:05;;;;;;;6.35;3.50;;;8.20;98.50;;;;;;6139144;23;19998;-81
2023/12/12 03:05:30;;;;;;;6.15;3.60;;;8.10;98.50;;;;;;6111870;23;20057;-81
2023/12/12 03:07:56;;;;;;;6.07;3.10;;;8.10;98.50;;;;;;6127921;23;20002;-80
2023/12/12 03:10:22;;;;;;;6.28;3.13;;;8.10;98.60;;;;;;6100610;23;20044;-79
2023/12/12 03:12:47;;;;;;;7.18;3.25;;;8.10;98.50;;;;;;6127944;23;20005;-81
2023/12/12 03:15:13;;;;;;;8.00;3.40;;;8.10;98.50;;;;;;6101704;23;20006;-79
2023/12/12 03:17:38;;;;;;;8.43;4.85;;;8.00;98.60;;;;;;6101664;23;20016;-82
2023/12/12 03:20:04;;;;;;;8.02;4.10;;;8.00;98.60;;;;;;6101234;23;20002;-79
2023/12/12 03:22:30;;;;;;;5.32;3.25;;;8.00;98.60;;;;;;6099330;23;20399;-80
2023/12/12 03:24:56;;;;;;;5.57;3.80;;;8.00;98.70;;;;;;6101785;23;20002;-81
2023/12/12 03:27:21;;;;;;;8.25;3.50;;;8.00;98.70;;;;;;6095599;23;20014;-80
2023/12/12 03:29:47;;;;;;;6.35;3.80;;;8.00;98.70;;;;;;6098513;23;20006;-79
2023/12/12 03:32:12;;;;;;;3.45;2.40;;;8.00;98.70;;;;;;6097932;23;20090;-79
2023/12/12 03:34:38;;;;;;;4.03;2.50;;;8.00;98.70;;;;;;6095980;23;20006;-81
2023/12/12 03:37:03;;;;;;;4.22;2.40;;;8.00;98.60;;;;;;6098713;23;20352;-82
2023/12/12 03:39:29;;;;;;;4.82;3.00;;;8.00;98.60;;;;;;6097126;23;20688;-82
2023/12/12 03:41:54;;;;;;;8.50;3.10;;;8.00;98.60;;;;;;6096484;23;20024;-80
2023/12/12 03:44:20;;;;;;;3.85;2.55;;;8.00;98.70;;;;;;6096892;23;20029;-80
2023/12/12 03:46:46;;;;;;;3.00;2.08;;;8.00;98.70;;;;;;6098992;23;20009;-82
2023/12/12 03:49:11;;;;;;;4.55;2.30;;;8.00;98.70;;;;;;6097316;23;20034;-80
2023/12/12 03:51:37;;;;;;;7.03;3.30;;;8.00;98.70;;;;;;6096187;23;20009;-78
2023/12/12 03:54:03;;;;;;;6.00;3.03;;;8.00;98.60;;;;;;6097021;23;20010;-79
2023/12/12 03:56:28;;;;;;;5.10;2.67;;;8.00;98.60;;;;;;6099999;23;20002;-81
2023/12/12 03:58:54;;;;;;;7.25;4.28;;;7.90;98.90;;;;;;6098447;23;20002;-82
2023/12/12 04:01:19;;;;;;;7.18;3.75;;;7.90;98.60;;;;;;6098183;23;20452;-79
2023/12/12 04:03:45;;;;;;;8.25;3.63;;;7.80;98.70;;;;;;6097236;23;20009;-82
2023/12/12 04:06:10;;;;;;;7.75;4.40;;;7.80;98.70;;;;;;6099984;23;20002;-81
2023/12/12 04:08:36;;;;;;;10.55;4.50;;;7.80;98.70;;;;;;6098422;23;20605;-81
2023/12/12 04:11:02;;;;;;;8.80;3.97;;;7.70;98.80;;;;;;6098145;23;20009;-79
2023/12/12 04:13:27;;;;;;;10.05;4.55;;;7.70;98.80;;;;;;6095939;23;20010;-80
2023/12/12 04:15:53;;;;;;;10.02;3.70;;;7.70;98.90;;;;;;6096372;23;20053;-82
2023/12/12 04:18:18;;;;;;;6.40;3.20;;;7.70;98.90;;;;;;6094841;23;20007;-80
2023/12/12 04:20:44;;;;;;;5.43;3.40;;;7.70;98.90;;;;;;6095109;23;19999;-81
2023/12/12 04:23:09;;;;;;;4.63;2.75;;;7.70;98.90;;;;;;6096344;23;20007;-81
2023/12/12 04:25:35;;;;;;;4.00;2.70;;;7.80;99.00;;;;;;6094297;23;19998;-80
2023/12/12 04:28:00;;;;;;;4.97;2.67;;;7.80;98.90;;;;;;6091464;23;20010;-81
2023/12/12 04:30:26;;;;;;;6.45;3.72;;;7.80;98.90;;;;;;6091265;23;20111;-79
2023/12/12 04:32:53;;;;;;;5.60;3.15;;;7.80;98.90;;;;;;6092394;23;20050;-80
2023/12/12 04:35:19;;;;;;;7.35;3.08;;;7.70;98.90;;;;;;6093430;23;20012;-79
2023/12/12 04:37:45;;;;;;;8.00;3.22;;;7.80;98.90;;;;;;6093831;23;20432;-80
2023/12/12 04:40:11;;;;;;;4.78;2.88;;;7.80;98.90;;;;;;6092776;23;20005;-80
2023/12/12 04:42:36;;;;;;;7.43;2.90;;;7.80;98.90;;;;;;6094451;23;20039;-79
2023/12/12 04:45:02;;;;;;;6.65;2.80;;;7.80;98.90;;;;;;6092456;23;19998;-79
2023/12/12 04:47:28;;;;;;;6.95;3.75;;;7.90;98.90;;;;;;6094246;23;19999;-80
2023/12/12 04:49:55;;;;;;;5.85;2.63;;;7.90;98.90;;;;;;6091334;23;20046;-81
2023/12/12 04:52:21;;;;;;;5.30;2.50;;;7.90;98.90;;;;;;6090803;23;20038;-80
2023/12/12 04:54:46;;;;;;;4.43;2.70;;;7.90;98.80;;;;;;6090755;23;20007;-79
2023/12/12 04:57:12;;;;;;;7.13;2.92;;;8.00;98.80;;;;;;6094347;23;20052;-81
2023/12/12 04:59:37;;;;;;;7.63;3.03;;;8.00;98.80;;;;;;6093372;23;20006;-81
2023/12/12 05:02:03;;;;;;;10.15;3.35;;;8.00;98.80;;;;;;6093443;23;20002;-80
2023/12/12 05:04:28;;;;;;;4.35;2.38;;;8.00;98.80;;;;;;6093310;23;20013;-79
2023/12/12 05:06:54;;;;;;;5.85;2.45;;;8.10;98.80;;;;;;6090091;23;20432;-79
2023/12/12 05:09:20;;;;;;;5.65;2.55;;;8.10;98.80;;;;;;6091120;23;20014;-80
2023/12/12 05:11:46;;;;;;;4.32;1.73;;;8.10;98.80;;;;;;6092212;23;20010;-79
2023/12/12 05:14:14;;;;;;;3.90;1.60;;;8.10;98.80;;;;;;6093755;23;20043;-80
2023/12/12 05:16:39;;;;;;;5.82;1.85;;;8.20;98.80;;;;;;6093020;23;20089;-80
2023/12/12 05:19:05;;;;;;;4.97;1.80;;;8.20;98.70;;;;;;6097036;23;20050;-81
2023/12/12 05:21:31;;;;;;;4.13;1.58;;;8.30;98.60;;;;;;6095448;23;20574;-81
2023/12/12 05:23:56;;;;;;;1.92;1.27;;;8.30;98.60;;;;;;6096456;23;20340;-81
2023/12/12 05:26:22;;;;;;;1.73;1.27;;;8.30;98.60;;;;;;6053545;23;1042970;-82
2023/12/12 05:28:47;;;;;;;2.42;1.40;;;8.30;98.50;;;;;;6124489;23;20034;-64
2023/12/12 05:31:13;;;;;;;1.73;1.30;;;8.30;98.50;;;;;;6122772;23;20418;-64
2023/12/12 05:33:38;;;;;;;2.97;1.40;;;8.30;98.50;;;;;;6122671;23;20010;-65
2023/12/12 05:36:05;;;;;;;3.45;1.50;;;8.30;98.50;;;;;;6121888;23;20372;-64
2023/12/12 05:38:30;;;;;;;2.65;1.50;;;8.30;98.60;;;;;;6119959;23;20002;-62
2023/12/12 05:40:56;;;;;;;3.58;1.50;;;8.30;98.60;;;;;;6120768;23;19998;-64
2023/12/12 05:43:22;;;;;;;3.22;1.30;;;8.30;98.70;;;;;;6120782;23;20012;-65
2023/12/12 05:45:47;;;;;;;3.25;1.40;;;8.20;98.60;;;;;;6120729;23;20002;-66
2023/12/12 05:48:13;;;;;;;2.40;1.40;;;8.20;98.70;;;;;;6118907;23;20002;-65
2023/12/12 05:50:39;;;;;;;2.33;1.20;;;8.20;98.70;;;;;;6120724;23;20065;-65
2023/12/12 05:53:04;;;;;;;1.40;1.00;;;8.20;98.80;;;;;;6121298;23;20307;-64
2023/12/12 05:55:30;;;;;;;4.07;1.40;;;8.20;98.80;;;;;;6121035;23;20002;-65
2023/12/12 05:57:55;;;;;;;1.45;1.30;;;8.30;98.80;;;;;;6120720;23;20009;-65
2023/12/12 06:00:21;;;;;;;3.80;1.23;;;8.30;98.80;;;;;;6120455;23;20339;-65
2023/12/12 06:02:46;;;;;;;2.80;1.50;;;8.30;98.70;;;;;;6120525;23;20447;-65
2023/12/12 06:05:12;;;;;;;2.22;1.20;;;8.30;98.70;;;;;;6120489;23;20338;-64
2023/12/12 06:07:38;;;;;;;1.85;0.98;;;8.20;98.70;;;;;;6119306;23;20490;-63
2023/12/12 06:10:05;;;;;;;1.98;1.17;;;8.20;98.70;;;;;;6121627;23;20002;-64
2023/12/12 06:12:31;;;;;;;1.95;1.20;;;8.20;98.80;;;;;;6121031;23;19998;-65
2023/12/12 06:14:57;;;;;;;2.58;1.20;;;8.30;98.80;;;;;;6118176;23;20089;-66
2023/12/12 06:17:23;;;;;;;5.70;1.90;;;8.30;98.70;;;;;;6120912;23;20026;-65
2023/12/12 06:19:49;;;;;;;5.72;2.05;;;8.30;98.60;;;;;;6120957;23;20085;-65
2023/12/12 06:22:15;;;;;;;3.95;2.00;;;8.30;98.60;;;;;;6121520;23;20041;-64
2023/12/12 06:24:40;;;;;;;2.25;1.55;;;8.30;98.50;;;;;;6120199;23;20008;-65
2023/12/12 06:27:06;;;;;;;2.65;1.20;;;8.30;98.50;;;;;;6121121;23;20423;-66
2023/12/12 06:29:32;;;;;;;3.97;1.40;;;8.30;98.50;;;;;;6119515;23;20017;-66
2023/12/12 06:31:57;;;;;;;2.88;1.60;;;8.40;98.30;;;;;;6120593;23;20604;-66
2023/12/12 06:34:23;;;;;;;2.47;1.60;;;8.30;98.20;;;;;;6121210;23;20002;-65
2023/12/12 06:36:48;;;;;;;3.38;1.48;;;8.30;98.30;;;;;;6121468;23;20439;-65
2023/12/12 06:39:14;;;;;;;6.90;1.70;;;8.30;98.30;;;;;;6120774;23;20009;-65
2023/12/12 06:41:40;;;;;;;1.65;1.35;;;8.40;98.30;;;;;;6095862;23;19998;-66
2023/12/12 06:44:06;;;;;;;2.58;1.52;;;8.40;98.40;;;;;;6122921;23;20077;-64
2023/12/12 06:46:31;;;;;;;2.40;1.63;;;8.30;98.30;;;;;;6123022;23;19998;-64
2023/12/12 06:48:57;;;;;;;4.55;2.00;;;8.30;98.40;;;;;;6122840;23;20080;-64
2023/12/12 06:51:23;;;;;;;2.55;1.80;;;8.40;98.50;;;;;;6122822;23;20001;-65
2023/12/12 06:53:49;;;;;;;2.60;1.70;;;8.40;98.50;;;;;;6122964;23;20434;-65
2023/12/12 06:56:14;;;;;;;3.25;1.42;;;8.40;98.50;;;;;;6122829;23;20431;-65
2023/12/12 06:58:40;;;;;;;4.20;2.00;;;8.50;98.40;;;;;;6120483;23;20458;-64
2023/12/12 07:01:06;;;;;;;2.88;1.42;;;8.50;98.40;;;;;;6121515;23;19998;-66
2023/12/12 07:03:32;;;;;;;4.10;1.63;;;8.50;98.20;;;;;;6122506;23;20006;-64
2023/12/12 07:05:58;;;;;;;3.25;1.85;;;8.50;98.30;;;;;;6123364;23;20600;-66
2023/12/12 07:08:23;;;;;;;4.82;1.92;;;8.40;98.20;;;;;;6123089;23;20021;-65
2023/12/12 07:10:50;;;;;;;2.90;1.50;;;8.40;98.30;;;;;;6122838;23;20068;-66
2023/12/12 07:13:15;;;;;;;3.20;1.48;;;8.40;98.50;;;;;;6122581;23;20010;-64
2023/12/12 07:15:41;;;;;;;3.42;1.67;;;8.30;98.50;;;;;;6122635;23;20006;-63
2023/12/12 07:18:10;;;;;;;5.80;2.30;;;8.40;98.60;;;;;;6122054;23;20006;-65
2023/12/12 07:20:36;;;;;;;3.22;1.73;;;8.40;98.50;;;;;;6122511;23;20002;-64
2023/12/12 07:23:03;;;;;;;5.35;1.85;;;8.30;98.60;;;;;;6122707;23;20006;-65
2023/12/12 07:25:29;;;;;;;2.47;1.60;;;8.30;98.70;;;;;;6122757;23;20370;-65
2023/12/12 07:27:55;;;;;;;2.30;1.70;;;8.20;98.80;;;;;;6121849;23;20010;-65
2023/12/12 07:30:20;;;;;;;3.28;1.83;;;8.20;98.80;;;;;;6122732;23;20057;-65
2023/12/12 07:32:46;;;;;;;2.80;1.42;;;8.20;98.80;;;;;;6122363;23;20089;-65
2023/12/12 07:35:11;;;;;;;3.50;2.00;;;8.30;99.00;;;;;;6122246;23;19998;-64
2023/12/12 07:37:37;;;;;;;2.92;1.55;;;8.30;98.90;;;;;;6120513;23;19998;-66
2023/12/12 07:40:04;;;;;;;2.22;1.40;;;8.30;98.80;;;;;;6121383;23;20006;-66
2023/12/12 07:42:30;;;;;;;2.97;1.80;;;8.40;98.70;;;;;;6121515;23;20049;-65
2023/12/12 07:44:56;;;;;;;2.88;1.77;;;8.30;98.70;;;;;;6120035;23;19998;-66
2023/12/12 07:47:22;;;;;;;3.00;1.80;;;8.30;98.70;;;;;;6121646;23;20021;-66
2023/12/12 07:49:47;;;;;;;4.40;2.13;;;8.30;98.80;;;;;;6121951;23;20029;-66
2023/12/12 07:52:13;;;;;;;3.72;1.80;;;8.30;98.80;;;;;;6122653;23;20002;-67
2023/12/12 07:54:39;;;;;;;3.60;2.15;;;8.30;98.80;;;;;;6121832;23;20006;-65
2023/12/12 07:57:05;;;;;;;2.92;1.60;;;8.30;98.70;;;;;;6121945;23;20052;-66
2023/12/12 07:59:31;;;;;;;3.88;1.58;;;8.40;98.80;;;;;;6117491;23;20013;-67
2023/12/12 08:01:56;;;;;;;2.38;1.50;;;8.40;98.90;;;;;;6113929;23;20010;-66
2023/12/12 08:04:22;;;;;;;3.58;1.75;;;8.50;98.90;;;;;;6117125;23;20001;-67
2023/12/12 08:06:47;;;;;;;3.92;1.90;;;8.50;98.70;;;;;;6118736;23;19998;-66
2023/12/12 08:09:13;;;;;;;4.85;2.50;;;8.40;98.70;;;;;;6119470;23;20065;-66
2023/12/12 08:11:39;;;;;;;3.03;2.00;;;8.40;98.80;;;;;;6118888;23;20037;-66
2023/12/12 08:14:05;;;;;;;4.32;1.60;;;8.40;98.80;;;;;;6119377;23;20072;-66
2023/12/12 08:16:31;;;;;;;3.53;1.70;;;8.50;98.90;;;;;;6118909;23;20081;-66
2023/12/12 08:18:56;;;;;;;4.85;1.83;;;8.50;98.70;;;;;;6119266;23;20478;-66
2023/12/12 08:21:22;;;;;;;2.70;1.30;;;8.50;98.70;;;;;;6118761;23;20013;-66
2023/12/12 08:23:48;;;;;;;4.15;1.90;;;8.50;98.80;;;;;;6120912;23;20607;-66
2023/12/12 08:26:14;;;;;;;3.47;1.80;;;8.50;98.70;;;;;;6121292;23;20005;-66
2023/12/12 08:28:40;;;;;;;3.85;1.70;;;8.60;98.80;;;;;;6120210;23;20482;-67
2023/12/12 08:31:06;;;;;;;3.75;1.33;;;8.60;98.80;;;;;;6120464;23;20001;-66
2023/12/12 08:33:34;;;;;;;2.97;1.42;;;8.60;98.70;;;;;;6120467;23;20494;-66
2023/12/12 08:36:00;;;;;;;5.35;1.70;;;8.60;98.70;;;;;;6095089;23;20006;-66
2023/12/12 08:38:25;;;;;;;4.18;1.50;;;8.60;98.70;;;;;;6119948;23;20526;-66
2023/12/12 08:40:51;;;;;;;4.38;1.73;;;8.60;98.80;;;;;;6120704;23;20446;-67
2023/12/12 08:43:17;;;;;;;2.38;1.83;;;8.60;98.80;;;;;;6120908;23;20339;-66
2023/12/12 08:45:43;;;;;;;6.82;1.92;;;8.70;98.90;;;;;;6121136;23;20067;-67
2023/12/12 08:48:09;;;;;;;3.58;1.60;;;8.70;98.90;;;;;;6120139;23;20044;-66
2023/12/12 08:50:35;;;;;;;5.25;1.80;;;8.80;99.00;;;;;;6119302;23;20470;-66
2023/12/12 08:53:02;;;;;;;4.13;1.85;;;8.80;98.90;;;;;;6120744;23;20018;-67
2023/12/12 08:55:28;;;;;;;6.10;1.98;;;8.80;98.90;;;;;;6119547;23;20021;-66
2023/12/12 08:57:54;;;;;;;4.35;1.50;;;8.90;98.90;;;;;;6120603;23;20006;-67
2023/12/12 09:00:19;;;;;;;4.25;1.88;;;8.80;98.80;;;;;;6120488;23;20029;-66
2023/12/12 09:02:45;;;;;;;3.55;1.52;;;8.90;99.00;;;;;;6117577;23;20045;-66
2023/12/12 09:05:10;;;;;;;5.20;2.15;;;8.90;98.90;;;;;;6119292;23;20012;-67
2023/12/12 09:07:36;;;;;;;3.67;1.42;;;8.90;98.80;;;;;;6118931;23;20044;-66
2023/12/12 09:10:06;;;;;;;3.45;1.90;;;8.90;98.80;;;;;;6120608;23;20009;-67
2023/12/12 09:12:32;;;;;;;4.75;2.63;;;8.90;98.80;;;;;;6120773;23;20029;-65
2023/12/12 09:14:58;;;;;;;2.75;1.83;;;8.90;98.80;;;;;;6120444;23;20060;-65
2023/12/12 09:17:23;;;;;;;3.35;1.90;;;8.90;99.00;;;;;;6116389;23;20080;-67
2023/12/12 09:19:49;;;;;;;4.28;2.00;;;8.90;99.00;;;;;;6116358;23;20006;-67
2023/12/12 09:22:14;;;;;;;7.85;2.20;;;9.00;99.00;;;;;;6115728;23;20002;-66
2023/12/12 09:24:40;;;;;;;5.22;2.50;;;9.00;99.00;;;;;;6119475;23;20089;-66
2023/12/12 09:27:06;;;;;;;3.90;1.85;;;9.00;99.00;;;;;;6120192;23;20831;-66
2023/12/12 09:29:31;;;;;;;5.50;1.83;;;9.00;99.10;;;;;;6119038;23;20447;-67
2023/12/12 09:31:57;;;;;;;5.13;1.80;;;9.00;99.00;;;;;;6116819;23;20040;-66
2023/12/12 09:34:23;;;;;;;5.03;2.20;;;9.00;99.10;;;;;;6117225;23;20017;-65
2023/12/12 09:36:50;;;;;;;7.43;2.42;;;9.00;99.10;;;;;;6118562;23;20013;-66
2023/12/12 09:39:16;;;;;;;5.45;2.13;;;9.00;99.20;;;;;;6119118;23;20002;-66
2023/12/12 09:41:46;;;;;;;4.32;1.77;;;9.00;99.10;;;;;;6119160;23;20097;-67
2023/12/12 09:44:15;;;;;;;5.68;2.30;;;9.00;99.10;;;;;;6118760;23;20005;-67
2023/12/12 09:46:42;;;;;;;2.85;1.83;;;9.00;99.10;;;;;;6119188;23;20005;-65
2023/12/12 09:49:11;;;;;;;4.13;1.92;;;9.10;99.20;;;;;;6119463;23;20422;-66
2023/12/12 09:51:38;;;;;;;6.50;2.17;;;9.00;99.20;;;;;;6119606;23;20026;-65
2023/12/12 09:54:07;;;;;;;5.35;2.10;;;9.10;99.20;;;;;;6118638;23;20013;-66
2023/12/12 09:56:35;;;;;;;4.68;2.03;;;9.10;99.20;;;;;;6120314;23;20072;-66
2023/12/12 09:59:01;;;;;;;4.22;1.90;;;9.10;99.30;;;;;;6119780;23;20026;-66
2023/12/12 10:01:26;;;;;;;5.72;1.95;;;9.10;99.40;;;;;;6118593;23;20408;-66
2023/12/12 10:03:54;;;;;;;3.80;2.00;;;9.20;99.40;;;;;;6118155;23;20002;-66
2023/12/12 10:06:22;;;;;;;5.10;1.88;;;9.20;99.40;;;;;;6118325;23;20632;-66
2023/12/12 10:08:48;;;;;;;7.07;1.90;;;9.30;99.40;;;;;;6117229;23;20005;-66
2023/12/12 10:11:14;;;;;;;5.03;1.90;;;9.30;99.20;;;;;;6118971;23;20079;-66
2023/12/12 10:13:51;;;;;;;4.03;1.75;;;9.40;99.10;;;;;;6118765;23;20002;-66
2023/12/12 10:16:17;;;;;;;3.03;1.30;;;9.40;99.10;;;;;;6094477;23;20383;-66
2023/12/12 10:18:46;;;;;;;3.63;1.42;;;9.50;99.10;;;;;;6117548;23;20037;-66
2023/12/12 10:21:19;;;;;;;4.75;2.03;;;9.50;99.00;;;;;;6119776;23;20056;-67
2023/12/12 10:23:47;;;;;;;3.03;1.60;;;9.50;99.00;;;;;;6113626;23;19998;-65
2023/12/12 10:26:14;;;;;;;2.78;1.50;;;9.50;99.10;;;;;;6119048;23;20002;-67
2023/12/12 10:28:41;;;;;;;4.57;1.70;;;9.60;99.10;;;;;;6118569;23;20024;-66
2023/12/12 10:31:07;;;;;;;4.13;2.03;;;9.70;98.90;;;;;;6119891;23;20009;-66
2023/12/12 10:33:34;;;;;;;4.47;2.10;;;9.70;99.10;;;;;;6118682;23;20006;-67
2023/12/12 10:36:05;;;;;;;3.97;1.73;;;9.70;98.90;;;;;;6119988;23;20027;-66
2023/12/12 10:38:30;;;;;;;3.70;1.90;;;9.70;98.80;;;;;;6118386;23;20077;-67
2023/12/12 10:41:12;;;;;;;5.00;2.92;;;9.60;98.90;;;;;;6119562;23;20378;-67
2023/12/12 10:43:40;;;;;;;;;;;9.70;99.20;;;;;;6119605;23;20025;-66
2023/12/12 10:46:08;;;;;;;4.40;1.48;;;9.70;99.10;;;;;;6120319;23;19935;-66
2023/12/12 10:48:38;;;;;;;7.05;1.80;;;9.80;99.10;;;;;;6117772;23;20006;-67
2023/12/12 10:51:05;;;;;;;5.95;2.10;;;9.80;99.10;;;;;;6120481;23;20502;-65
2023/12/12 10:53:31;;;;;;;3.17;1.85;;;9.80;99.20;;;;;;6119440;23;20013;-65
2023/12/12 10:55:58;;;;;;;5.43;2.10;;;9.90;99.20;;;;;;6119452;23;20057;-66
2023/12/12 10:58:24;;;;;;;3.72;1.63;;;9.90;99.10;;;;;;6118238;23;20018;-67
2023/12/12 11:00:50;;;;;;;5.68;1.73;;;9.90;99.10;;;;;;6119002;23;19998;-66
2023/12/12 11:03:16;;;;;;;4.05;2.00;;;10.00;99.10;;;;;;6119165;23;20028;-66
2023/12/12 11:05:42;;;;;;;6.88;2.45;;;10.00;99.10;;;;;;6119105;23;20085;-66
2023/12/12 11:08:09;;;;;;;4.50;1.70;;;10.10;99.10;;;;;;6119018;23;20004;-67
2023/12/12 11:10:34;;;;;;;3.50;1.80;;;10.20;99.00;;;;;;6119558;23;19998;-66
2023/12/12 11:13:02;;;;;;;4.22;1.80;;;10.20;99.00;;;;;;6119867;23;19998;-66
2023/12/12 11:15:29;;;;;;;4.05;1.60;;;10.30;98.90;;;;;;6119170;23;20025;-67
2023/12/12 11:17:56;;;;;;;4.63;1.50;;;10.30;98.90;;;;;;6118273;23;20388;-67
2023/12/12 11:20:22;;;;;;;6.57;1.75;;;10.30;98.90;;;;;;6116864;23;20078;-66
2023/12/12 11:22:51;;;;;;;2.83;1.58;;;10.40;98.90;;;;;;6117805;23;20073;-67
2023/12/12 11:25:21;;;;;;;4.72;1.60;;;10.50;98.90;;;;;;6118681;23;20005;-67
2023/12/12 11:27:51;;;;;;;4.82;1.83;;;10.50;98.90;;;;;;6118754;23;20604;-67
2023/12/12 11:30:29;;;;;;;3.92;1.60;;;10.60;98.70;;;;;;6119373;23;20623;-66
2023/12/12 11:32:55;;;;;;;5.28;1.98;;;10.60;98.70;;;;;;6118801;23;20014;-68
2023/12/12 11:35:31;;;;;;;6.93;2.20;;;10.70;98.70;;;;;;6094738;23;20030;-66
2023/12/12 11:38:04;;;;;;;6.47;2.20;;;10.70;98.80;;;;;;6120185;23;20316;-67
2023/12/12 11:40:33;;;;;;;2.20;1.33;;;10.80;98.80;;;;;;6120378;23;20022;-66
2023/12/12 11:43:22;;;;;;;6.93;2.00;;;10.90;98.80;;;;;;6119146;23;20077;-66
2023/12/12 11:45:47;;;;;;;4.55;1.77;;;11.00;98.50;;;;;;6120734;23;20411;-67
2023/12/12 11:48:13;;;;;;;4.50;1.80;;;11.10;98.50;;;;;;6121447;23;20010;-66
2023/12/12 11:50:39;;;;;;;4.00;1.40;;;11.10;98.30;;;;;;6120821;23;20097;-66
2023/12/12 11:53:05;;;;;;;4.22;1.67;;;11.10;98.10;;;;;;6118280;23;20002;-66
2023/12/12 11:55:42;;;;;;;5.18;1.58;;;11.10;98.10;;;;;;6119314;23;20033;-66
2023/12/12 11:58:08;;;;;;;3.75;1.55;;;11.20;98.10;;;;;;6120301;23;20012;-66
2023/12/12 12:00:35;;;;;;;5.35;2.22;;;11.10;98.40;;;;;;6119580;23;20054;-65
2023/12/12 12:03:02;;;;;;;5.60;1.65;;;11.10;98.20;;;;;;6121471;23;20014;-66
2023/12/12 12:05:28;;;;;;;9.63;2.67;;;11.20;98.30;;;;;;6095253;23;20004;-66
2023/12/12 12:07:55;;;;;;;6.10;1.77;;;11.20;98.40;;;;;;6118154;23;20002;-66
2023/12/12 12:10:21;;;;;;;6.28;1.73;;;11.10;98.20;;;;;;6092069;23;20438;-66
2023/12/12 12:12:54;;;;;;;6.35;1.98;;;11.20;98.20;;;;;;6119996;23;20451;-65
2023/12/12 12:15:20;;;;;;;5.40;2.10;;;11.20;98.10;;;;;;6120709;23;20013;-66
2023/12/12 12:17:45;;;;;;;3.33;1.67;;;11.20;98.10;;;;;;6120870;23;20799;-67
2023/12/12 12:20:11;;;;;;;6.50;1.80;;;11.40;98.20;;;;;;6119623;23;20028;-67
2023/12/12 12:22:38;;;;;;;3.83;1.48;;;11.50;98.30;;;;;;6119125;23;20001;-66
2023/12/12 12:25:05;;;;;;;9.95;2.50;;;11.90;98.60;;;;;;6120566;23;20006;-66
2023/12/12 12:27:30;;;;;;;7.13;1.70;;;12.40;97.80;;;;;;6119887;23;19998;-67
2023/12/12 12:30:05;;;;;;;6.82;1.95;;;13.20;97.10;;;;;;6118143;23;20068;-66
2023/12/12 12:32:32;;;;;;;5.95;1.83;;;14.00;95.40;;;;;;6120166;23;20017;-66
2023/12/12 12:35:08;;;;;;;7.65;2.10;;;14.90;93.80;;;;;;6119697;23;20010;-65
2023/12/12 12:37:35;;;;;;;3.30;1.58;;;15.40;92.30;;;;;;6119230;23;20002;-67
2023/12/12 12:40:04;;;;;;;4.88;2.10;;;15.20;92.10;;;;;;6120628;23;20061;-66
2023/12/12 12:42:40;;;;;;;8.90;2.20;;;15.40;91.20;;;;;;6094740;23;20013;-67
2023/12/12 12:45:07;;;;;;;5.22;1.88;;;15.00;91.90;;;;;;6119949;23;20025;-66
2023/12/12 12:47:33;;;;;;;5.60;2.00;;;14.60;92.90;;;;;;6119268;23;20002;-67
2023/12/12 12:49:59;;;;;;;5.47;1.42;;;14.20;93.40;;;;;;6120857;23;20464;-66